sensor_id;sensor_type;location;lat;lon;timestamp;pressure;altitude;pressure_sealevel;temperature;humidity
15998;BME280;8103;51.340;12.326;2023-03-23T00:01:14;99384.59;;;14.30;60.81
15998;BME280;8103;51.340;12.326;2023-03-23T00:03:41;99383.81;;;14.29;60.91
15998;BME280;8103;51.340;12.326;2023-03-23T00:06:08;99383.81;;;14.29;60.82
15998;BME280;8103;51.340;12.326;2023-03-23T00:08:37;99387.41;;;14.25;60.81
15998;BME280;8103;51.340;12.326;2023-03-23T00:11:06;99381.44;;;14.28;61.09
15998;BME280;8103;51.340;12.326;2023-03-23T00:13:33;99373.63;;;14.26;60.55
15998;BME280;8103;51.340;12.326;2023-03-23T00:15:59;99372.22;;;14.29;60.37
15998;BME280;8103;51.340;12.326;2023-03-23T00:18:25;99367.13;;;14.27;60.41
15998;BME280;8103;51.340;12.326;2023-03-23T00:20:54;99366.03;;;14.28;60.36
15998;BME280;8103;51.340;12.326;2023-03-23T00:23:25;99364.94;;;14.29;60.24
15998;BME280;8103;51.340;12.326;2023-03-23T00:25:55;99354.16;;;14.29;60.30
15998;BME280;8103;51.340;12.326;2023-03-23T00:28:26;99350.94;;;14.27;60.10
15998;BME280;8103;51.340;12.326;2023-03-23T00:31:05;99359.03;;;14.27;59.78
15998;BME280;8103;51.340;12.326;2023-03-23T00:33:35;99343.88;;;14.31;59.41
15998;BME280;8103;51.340;12.326;2023-03-23T00:36:08;99352.88;;;14.40;58.95
15998;BME280;8103;51.340;12.326;2023-03-23T00:38:36;99351.16;;;14.44;58.74
15998;BME280;8103;51.340;12.326;2023-03-23T00:41:03;99349.50;;;14.48;58.41
15998;BME280;8103;51.340;12.326;2023-03-23T00:43:29;99355.09;;;14.52;58.47
15998;BME280;8103;51.340;12.326;2023-03-23T00:45:57;99348.31;;;14.54;58.29
15998;BME280;8103;51.340;12.326;2023-03-23T00:48:28;99349.31;;;14.58;57.95
15998;BME280;8103;51.340;12.326;2023-03-23T00:50:55;99342.09;;;14.54;58.31
15998;BME280;8103;51.340;12.326;2023-03-23T00:53:21;99336.94;;;14.57;57.89
15998;BME280;8103;51.340;12.326;2023-03-23T00:55:49;99341.50;;;14.57;57.91
15998;BME280;8103;51.340;12.326;2023-03-23T00:58:15;99348.31;;;14.54;58.25
15998;BME280;8103;51.340;12.326;2023-03-23T01:00:42;99336.31;;;14.47;58.51
15998;BME280;8103;51.340;12.326;2023-03-23T01:03:09;99344.78;;;14.40;58.66
15998;BME280;8103;51.340;12.326;2023-03-23T01:05:39;99340.09;;;14.32;58.85
15998;BME280;8103;51.340;12.326;2023-03-23T01:08:06;99336.19;;;14.25;59.10
15998;BME280;8103;51.340;12.326;2023-03-23T01:10:32;99335.94;;;14.21;59.35
15998;BME280;8103;51.340;12.326;2023-03-23T01:13:00;99332.44;;;14.21;59.54
15998;BME280;8103;51.340;12.326;2023-03-23T01:15:29;99328.94;;;14.20;59.48
15998;BME280;8103;51.340;12.326;2023-03-23T01:17:56;99327.66;;;14.18;59.20
15998;BME280;8103;51.340;12.326;2023-03-23T01:20:22;99323.56;;;14.20;59.21
15998;BME280;8103;51.340;12.326;2023-03-23T01:22:48;99324.66;;;14.19;59.20
15998;BME280;8103;51.340;12.326;2023-03-23T01:25:14;99319.84;;;14.16;59.22
15998;BME280;8103;51.340;12.326;2023-03-23T01:27:41;99315.84;;;14.14;59.23
15998;BME280;8103;51.340;12.326;2023-03-23T01:30:11;99308.03;;;14.12;59.70
15998;BME280;8103;51.340;12.326;2023-03-23T01:32:38;99305.88;;;14.14;59.28
15998;BME280;8103;51.340;12.326;2023-03-23T01:35:05;99306.38;;;14.16;59.23
15998;BME280;8103;51.340;12.326;2023-03-23T01:37:31;99300.19;;;14.16;59.01
15998;BME280;8103;51.340;12.326;2023-03-23T01:39:57;99296.66;;;14.15;58.86
15998;BME280;8103;51.340;12.326;2023-03-23T01:42:26;99293.50;;;14.13;58.77
15998;BME280;8103;51.340;12.326;2023-03-23T01:48:03;99288.59;;;14.15;58.86
15998;BME280;8103;51.340;12.326;2023-03-23T01:50:57;99295.38;;;14.13;58.82
15998;BME280;8103;51.340;12.326;2023-03-23T01:53:25;99293.78;;;14.12;59.00
15998;BME280;8103;51.340;12.326;2023-03-23T01:55:54;99286.78;;;14.11;58.75
15998;BME280;8103;51.340;12.326;2023-03-23T01:58:27;99284.06;;;14.11;59.06
15998;BME280;8103;51.340;12.326;2023-03-23T02:00:58;99282.72;;;14.13;58.68
15998;BME280;8103;51.340;12.326;2023-03-23T02:03:28;99288.09;;;14.13;58.58
15998;BME280;8103;51.340;12.326;2023-03-23T02:05:57;99286.69;;;14.16;58.20
15998;BME280;8103;51.340;12.326;2023-03-23T02:08:31;99289.53;;;14.24;57.83
15998;BME280;8103;51.340;12.326;2023-03-23T02:10:58;99275.16;;;14.29;57.62
15998;BME280;8103;51.340;12.326;2023-03-23T02:13:26;99279.75;;;14.28;57.64
15998;BME280;8103;51.340;12.326;2023-03-23T02:22:14;99263.97;;;14.49;56.63
15998;BME280;8103;51.340;12.326;2023-03-23T02:24:51;99261.97;;;14.54;56.18
15998;BME280;8103;51.340;12.326;2023-03-23T02:30:41;99262.38;;;14.61;55.52
15998;BME280;8103;51.340;12.326;2023-03-23T02:36:36;99246.06;;;14.66;55.17
15998;BME280;8103;51.340;12.326;2023-03-23T02:39:45;99246.06;;;14.66;55.31
15998;BME280;8103;51.340;12.326;2023-03-23T02:42:20;99249.78;;;14.70;55.40
15998;BME280;8103;51.340;12.326;2023-03-23T02:44:49;99243.78;;;14.73;55.08
15998;BME280;8103;51.340;12.326;2023-03-23T02:47:23;99250.25;;;14.72;54.89
15998;BME280;8103;51.340;12.326;2023-03-23T02:49:54;99242.16;;;14.72;55.09
15998;BME280;8103;51.340;12.326;2023-03-23T02:52:29;99237.88;;;14.71;55.37
15998;BME280;8103;51.340;12.326;2023-03-23T02:54:57;99241.78;;;14.65;55.35
15998;BME280;8103;51.340;12.326;2023-03-23T02:57:27;99240.97;;;14.65;55.33
15998;BME280;8103;51.340;12.326;2023-03-23T02:59:53;99231.59;;;14.62;55.77
15998;BME280;8103;51.340;12.326;2023-03-23T03:02:27;99238.56;;;14.63;55.66
15998;BME280;8103;51.340;12.326;2023-03-23T03:05:06;99231.78;;;14.66;55.76
15998;BME280;8103;51.340;12.326;2023-03-23T03:08:09;99236.06;;;14.67;55.56
15998;BME280;8103;51.340;12.326;2023-03-23T03:10:54;99237.97;;;14.66;55.50
15998;BME280;8103;51.340;12.326;2023-03-23T03:13:58;99226.41;;;14.66;55.59
15998;BME280;8103;51.340;12.326;2023-03-23T03:16:35;99230.38;;;14.68;55.50
15998;BME280;8103;51.340;12.326;2023-03-23T03:19:23;99220.69;;;14.67;55.48
15998;BME280;8103;51.340;12.326;2023-03-23T03:21:54;99222.88;;;14.65;55.33
15998;BME280;8103;51.340;12.326;2023-03-23T03:24:23;99214.78;;;14.65;55.19
15998;BME280;8103;51.340;12.326;2023-03-23T03:26:53;99228.78;;;14.67;55.37
15998;BME280;8103;51.340;12.326;2023-03-23T03:29:34;99221.97;;;14.70;55.39
15998;BME280;8103;51.340;12.326;2023-03-23T03:32:04;99236.28;;;14.70;55.71
15998;BME280;8103;51.340;12.326;2023-03-23T03:34:33;99226.78;;;14.73;55.23
15998;BME280;8103;51.340;12.326;2023-03-23T03:37:00;99234.50;;;14.66;55.90
15998;BME280;8103;51.340;12.326;2023-03-23T03:39:27;99247.78;;;14.62;55.90
15998;BME280;8103;51.340;12.326;2023-03-23T03:41:54;99242.38;;;14.62;56.11
15998;BME280;8103;51.340;12.326;2023-03-23T03:44:20;99235.41;;;14.61;56.15
15998;BME280;8103;51.340;12.326;2023-03-23T03:46:46;99231.41;;;14.59;56.29
15998;BME280;8103;51.340;12.326;2023-03-23T03:49:14;99241.91;;;14.60;56.49
15998;BME280;8103;51.340;12.326;2023-03-23T03:51:41;99244.69;;;14.55;56.46
15998;BME280;8103;51.340;12.326;2023-03-23T03:54:07;99239.81;;;14.57;56.50
15998;BME280;8103;51.340;12.326;2023-03-23T03:56:33;99238.19;;;14.56;56.91
15998;BME280;8103;51.340;12.326;2023-03-23T03:59:02;99222.00;;;14.56;56.70
15998;BME280;8103;51.340;12.326;2023-03-23T04:01:28;99217.72;;;14.55;56.88
15998;BME280;8103;51.340;12.326;2023-03-23T04:03:55;99221.22;;;14.56;56.84
15998;BME280;8103;51.340;12.326;2023-03-23T04:06:21;99228.59;;;14.50;57.02
15998;BME280;8103;51.340;12.326;2023-03-23T04:08:47;99238.00;;;14.53;56.97
15998;BME280;8103;51.340;12.326;2023-03-23T04:11:15;99236.22;;;14.48;56.91
15998;BME280;8103;51.340;12.326;2023-03-23T04:13:41;99229.63;;;14.54;57.30
15998;BME280;8103;51.340;12.326;2023-03-23T04:16:08;99246.78;;;14.58;56.99
15998;BME280;8103;51.340;12.326;2023-03-23T04:18:35;99250.78;;;14.61;56.81
15998;BME280;8103;51.340;12.326;2023-03-23T04:21:02;99249.88;;;14.65;56.59
15998;BME280;8103;51.340;12.326;2023-03-23T04:23:30;99238.56;;;14.63;56.63
15998;BME280;8103;51.340;12.326;2023-03-23T04:25:59;99230.47;;;14.63;56.75
15998;BME280;8103;51.340;12.326;2023-03-23T04:28:26;99242.28;;;14.67;56.44
15998;BME280;8103;51.340;12.326;2023-03-23T04:30:54;99241.16;;;14.68;56.78
15998;BME280;8103;51.340;12.326;2023-03-23T04:33:26;99238.97;;;14.70;56.63
15998;BME280;8103;51.340;12.326;2023-03-23T04:35:54;99242.75;;;14.69;56.80
15998;BME280;8103;51.340;12.326;2023-03-23T04:38:22;99237.38;;;14.69;57.00
15998;BME280;8103;51.340;12.326;2023-03-23T04:40:51;99239.59;;;14.67;57.25
15998;BME280;8103;51.340;12.326;2023-03-23T04:43:22;99243.50;;;14.61;57.34
15998;BME280;8103;51.340;12.326;2023-03-23T04:45:58;99247.28;;;14.60;57.50
15998;BME280;8103;51.340;12.326;2023-03-23T04:48:28;99251.38;;;14.58;57.84
15998;BME280;8103;51.340;12.326;2023-03-23T04:50:55;99253.78;;;14.59;57.85
15998;BME280;8103;51.340;12.326;2023-03-23T04:53:21;99250.00;;;14.60;57.81
15998;BME280;8103;51.340;12.326;2023-03-23T04:55:48;99244.59;;;14.60;57.69
15998;BME280;8103;51.340;12.326;2023-03-23T04:58:16;99250.00;;;14.60;57.91
15998;BME280;8103;51.340;12.326;2023-03-23T05:00:43;99252.34;;;14.62;57.95
15998;BME280;8103;51.340;12.326;2023-03-23T05:03:10;99248.59;;;14.63;58.08
15998;BME280;8103;51.340;12.326;2023-03-23T05:05:36;99257.97;;;14.65;57.93
15998;BME280;8103;51.340;12.326;2023-03-23T05:08:03;99267.94;;;14.65;58.10
15998;BME280;8103;51.340;12.326;2023-03-23T05:10:29;99264.34;;;14.69;58.05
15998;BME280;8103;51.340;12.326;2023-03-23T05:12:55;99264.94;;;14.66;58.11
15998;BME280;8103;51.340;12.326;2023-03-23T05:15:21;99268.16;;;14.68;58.04
15998;BME280;8103;51.340;12.326;2023-03-23T05:17:47;99261.16;;;14.67;58.01
15998;BME280;8103;51.340;12.326;2023-03-23T05:20:16;99260.34;;;14.67;57.88
15998;BME280;8103;51.340;12.326;2023-03-23T05:22:49;99260.06;;;14.68;58.13
15998;BME280;8103;51.340;12.326;2023-03-23T05:25:16;99253.56;;;14.69;58.24
15998;BME280;8103;51.340;12.326;2023-03-23T05:27:45;99257.34;;;14.68;58.30
15998;BME280;8103;51.340;12.326;2023-03-23T05:30:15;99263.88;;;14.67;58.49
15998;BME280;8103;51.340;12.326;2023-03-23T05:32:43;99256.97;;;14.61;59.80
15998;BME280;8103;51.340;12.326;2023-03-23T05:35:12;99250.16;;;14.50;60.44
15998;BME280;8103;51.340;12.326;2023-03-23T05:37:38;99259.88;;;14.51;61.22
15998;BME280;8103;51.340;12.326;2023-03-23T05:40:05;99261.97;;;14.54;61.12
15998;BME280;8103;51.340;12.326;2023-03-23T05:42:35;99263.56;;;14.55;60.86
15998;BME280;8103;51.340;12.326;2023-03-23T05:45:05;99263.97;;;14.62;60.49
15998;BME280;8103;51.340;12.326;2023-03-23T05:47:31;99269.34;;;14.62;60.13
15998;BME280;8103;51.340;12.326;2023-03-23T05:49:58;99267.25;;;14.59;60.70
15998;BME280;8103;51.340;12.326;2023-03-23T05:52:24;99267.94;;;14.78;61.51
15998;BME280;8103;51.340;12.326;2023-03-23T05:54:51;99269.88;;;15.14;61.42
15998;BME280;8103;51.340;12.326;2023-03-23T05:57:17;99271.84;;;15.22;61.06
15998;BME280;8103;51.340;12.326;2023-03-23T05:59:44;99281.69;;;15.18;60.49
15998;BME280;8103;51.340;12.326;2023-03-23T06:02:11;99289.59;;;15.01;60.38
15998;BME280;8103;51.340;12.326;2023-03-23T06:04:39;99289.91;;;14.85;60.68
15998;BME280;8103;51.340;12.326;2023-03-23T06:07:08;99295.53;;;14.75;61.19
15998;BME280;8103;51.340;12.326;2023-03-23T06:09:38;99299.13;;;14.71;61.87
15998;BME280;8103;51.340;12.326;2023-03-23T06:12:04;99293.03;;;14.65;62.59
15998;BME280;8103;51.340;12.326;2023-03-23T06:14:30;99310.13;;;14.61;62.93
15998;BME280;8103;51.340;12.326;2023-03-23T06:16:56;99310.94;;;14.61;63.51
15998;BME280;8103;51.340;12.326;2023-03-23T06:19:22;99310.94;;;14.61;64.54
15998;BME280;8103;51.340;12.326;2023-03-23T06:21:48;99310.94;;;14.61;65.16
15998;BME280;8103;51.340;12.326;2023-03-23T06:24:14;99303.53;;;14.67;64.78
15998;BME280;8103;51.340;12.326;2023-03-23T06:26:40;99309.13;;;14.70;64.77
15998;BME280;8103;51.340;12.326;2023-03-23T06:29:10;99301.44;;;14.77;64.64
15998;BME280;8103;51.340;12.326;2023-03-23T06:36:12;99312.53;;;14.89;65.08
15998;BME280;8103;51.340;12.326;2023-03-23T06:38:38;99313.31;;;14.90;65.43
15998;BME280;8103;51.340;12.326;2023-03-23T06:41:04;99313.59;;;14.88;65.46
15998;BME280;8103;51.340;12.326;2023-03-23T06:43:30;99316.91;;;14.85;65.50
15998;BME280;8103;51.340;12.326;2023-03-23T06:45:59;99317.72;;;14.86;65.73
15998;BME280;8103;51.340;12.326;2023-03-23T06:48:26;99314.94;;;14.77;66.29
15998;BME280;8103;51.340;12.326;2023-03-23T06:50:52;99322.03;;;14.73;66.48
15998;BME280;8103;51.340;12.326;2023-03-23T06:53:18;99317.72;;;14.72;66.70
15998;BME280;8103;51.340;12.326;2023-03-23T06:55:46;99316.34;;;14.61;68.33
15998;BME280;8103;51.340;12.326;2023-03-23T06:58:15;99320.91;;;14.61;67.42
15998;BME280;8103;51.340;12.326;2023-03-23T07:00:42;99330.03;;;14.51;68.83
15998;BME280;8103;51.340;12.326;2023-03-23T07:03:08;99337.63;;;14.63;68.42
15998;BME280;8103;51.340;12.326;2023-03-23T07:05:35;99337.31;;;14.78;67.37
15998;BME280;8103;51.340;12.326;2023-03-23T07:08:03;99335.81;;;14.85;68.44
15998;BME280;8103;51.340;12.326;2023-03-23T07:10:31;99343.91;;;14.85;67.17
15998;BME280;8103;51.340;12.326;2023-03-23T07:12:57;99341.50;;;14.84;67.13
15998;BME280;8103;51.340;12.326;2023-03-23T07:15:24;99363.31;;;14.87;67.47
15998;BME280;8103;51.340;12.326;2023-03-23T07:17:51;99349.91;;;14.82;67.41
15998;BME280;8103;51.340;12.326;2023-03-23T07:20:17;99352.09;;;14.80;67.81
15998;BME280;8103;51.340;12.326;2023-03-23T07:26:50;99356.59;;;14.85;67.66
15998;BME280;8103;51.340;12.326;2023-03-23T07:33:22;99352.28;;;14.98;68.57
15998;BME280;8103;51.340;12.326;2023-03-23T07:35:49;99352.28;;;14.98;68.08
15998;BME280;8103;51.340;12.326;2023-03-23T07:38:15;99348.31;;;14.95;68.49
15998;BME280;8103;51.340;12.326;2023-03-23T07:44:40;99352.88;;;15.08;68.41
15998;BME280;8103;51.340;12.326;2023-03-23T07:47:06;99358.88;;;15.19;67.86
15998;BME280;8103;51.340;12.326;2023-03-23T07:49:33;99358.88;;;15.19;67.85
15998;BME280;8103;51.340;12.326;2023-03-23T07:51:59;99350.88;;;15.14;68.00
15998;BME280;8103;51.340;12.326;2023-03-23T07:54:27;99342.16;;;15.17;68.03
15998;BME280;8103;51.340;12.326;2023-03-23T07:56:53;99354.75;;;15.21;67.72
15998;BME280;8103;51.340;12.326;2023-03-23T07:59:18;99356.47;;;15.31;67.47
15998;BME280;8103;51.340;12.326;2023-03-23T08:01:44;99355.75;;;15.25;67.71
15998;BME280;8103;51.340;12.326;2023-03-23T08:04:10;99349.28;;;15.26;68.04
15998;BME280;8103;51.340;12.326;2023-03-23T08:06:36;99350.03;;;15.27;68.81
15998;BME280;8103;51.340;12.326;2023-03-23T08:09:02;99355.66;;;15.30;69.02
15998;BME280;8103;51.340;12.326;2023-03-23T08:11:35;99351.47;;;15.38;69.10
15998;BME280;8103;51.340;12.326;2023-03-23T08:14:01;99349.56;;;15.38;68.70
15998;BME280;8103;51.340;12.326;2023-03-23T08:16:28;99353.25;;;15.42;68.79
15998;BME280;8103;51.340;12.326;2023-03-23T08:18:54;99351.34;;;15.43;68.49
15998;BME280;8103;51.340;12.326;2023-03-23T08:21:20;99358.84;;;15.46;69.09
15998;BME280;8103;51.340;12.326;2023-03-23T08:23:47;99355.47;;;15.40;69.05
15998;BME280;8103;51.340;12.326;2023-03-23T08:26:13;99348.22;;;15.36;69.51
15998;BME280;8103;51.340;12.326;2023-03-23T08:28:41;99334.56;;;15.19;70.87
15998;BME280;8103;51.340;12.326;2023-03-23T08:31:11;99345.97;;;15.16;71.58
15998;BME280;8103;51.340;12.326;2023-03-23T08:33:38;99348.69;;;15.16;72.44
15998;BME280;8103;51.340;12.326;2023-03-23T08:36:05;99353.91;;;14.99;73.52
15998;BME280;8103;51.340;12.326;2023-03-23T08:38:31;99355.72;;;14.89;73.34
15998;BME280;8103;51.340;12.326;2023-03-23T08:41:03;99342.72;;;14.64;74.88
15998;BME280;8103;51.340;12.326;2023-03-23T08:43:31;99347.69;;;14.44;76.72
15998;BME280;8103;51.340;12.326;2023-03-23T08:45:58;99350.91;;;14.59;75.97
15998;BME280;8103;51.340;12.326;2023-03-23T08:48:25;99353.09;;;14.98;74.42
15998;BME280;8103;51.340;12.326;2023-03-23T08:50:51;99350.63;;;15.51;71.91
15998;BME280;8103;51.340;12.326;2023-03-23T08:53:18;99343.66;;;15.94;68.84
15998;BME280;8103;51.340;12.326;2023-03-23T08:55:48;99341.56;;;16.13;67.43
15998;BME280;8103;51.340;12.326;2023-03-23T08:58:14;99336.97;;;16.22;66.49
15998;BME280;8103;51.340;12.326;2023-03-23T09:00:41;99345.63;;;16.32;66.29
15998;BME280;8103;51.340;12.326;2023-03-23T09:03:07;99352.19;;;16.40;66.14
15998;BME280;8103;51.340;12.326;2023-03-23T09:05:32;99347.06;;;16.60;65.62
15998;BME280;8103;51.340;12.326;2023-03-23T09:07:58;99332.72;;;16.60;63.91
15998;BME280;8103;51.340;12.326;2023-03-23T09:10:27;99344.56;;;16.64;64.60
15998;BME280;8103;51.340;12.326;2023-03-23T09:12:53;99343.31;;;16.70;64.25
15998;BME280;8103;51.340;12.326;2023-03-23T09:15:21;99337.00;;;16.91;63.29
15998;BME280;8103;51.340;12.326;2023-03-23T09:17:51;99332.44;;;17.09;62.12
15998;BME280;8103;51.340;12.326;2023-03-23T09:20:23;99343.09;;;17.06;62.11
15998;BME280;8103;51.340;12.326;2023-03-23T09:22:53;99341.03;;;17.11;61.56
15998;BME280;8103;51.340;12.326;2023-03-23T09:25:23;99342.00;;;17.15;61.07
15998;BME280;8103;51.340;12.326;2023-03-23T09:27:56;99347.75;;;17.14;62.05
15998;BME280;8103;51.340;12.326;2023-03-23T09:30:30;99356.03;;;17.17;61.49
15998;BME280;8103;51.340;12.326;2023-03-23T09:32:57;99341.53;;;17.22;61.40
15998;BME280;8103;51.340;12.326;2023-03-23T09:35:24;99344.22;;;17.13;61.57
15998;BME280;8103;51.340;12.326;2023-03-23T09:37:51;99348.06;;;17.29;61.37
15998;BME280;8103;51.340;12.326;2023-03-23T09:43:34;99347.13;;;17.42;59.68
15998;BME280;8103;51.340;12.326;2023-03-23T09:49:04;99351.81;;;17.50;58.94
15998;BME280;8103;51.340;12.326;2023-03-23T09:52:10;99358.03;;;17.59;58.65
15998;BME280;8103;51.340;12.326;2023-03-23T09:54:40;99348.78;;;17.60;59.03
15998;BME280;8103;51.340;12.326;2023-03-23T09:57:30;99343.84;;;17.54;59.21
15998;BME280;8103;51.340;12.326;2023-03-23T10:00:22;99347.66;;;17.53;58.72
15998;BME280;8103;51.340;12.326;2023-03-23T10:03:05;99361.81;;;17.41;58.79
15998;BME280;8103;51.340;12.326;2023-03-23T10:05:40;99346.19;;;17.38;58.72
15998;BME280;8103;51.340;12.326;2023-03-23T10:08:26;99359.25;;;17.36;58.93
15998;BME280;8103;51.340;12.326;2023-03-23T10:11:12;99342.72;;;17.46;57.27
15998;BME280;8103;51.340;12.326;2023-03-23T10:14:19;99346.88;;;17.52;56.24
15998;BME280;8103;51.340;12.326;2023-03-23T10:17:19;99350.53;;;17.65;56.57
15998;BME280;8103;51.340;12.326;2023-03-23T10:20:05;99352.13;;;17.74;55.03
15998;BME280;8103;51.340;12.326;2023-03-23T10:22:45;99338.59;;;17.74;55.29
15998;BME280;8103;51.340;12.326;2023-03-23T10:28:01;99343.66;;;17.67;53.47
15998;BME280;8103;51.340;12.326;2023-03-23T10:30:52;99352.28;;;17.69;54.17
15998;BME280;8103;51.340;12.326;2023-03-23T10:33:43;99351.97;;;17.79;53.50
15998;BME280;8103;51.340;12.326;2023-03-23T10:36:25;99349.06;;;18.01;55.90
15998;BME280;8103;51.340;12.326;2023-03-23T10:39:11;99343.75;;;18.30;54.67
15998;BME280;8103;51.340;12.326;2023-03-23T10:41:38;99355.81;;;18.58;53.87
15998;BME280;8103;51.340;12.326;2023-03-23T10:44:16;99354.47;;;18.73;53.41
15998;BME280;8103;51.340;12.326;2023-03-23T10:46:56;99357.28;;;18.56;52.31
15998;BME280;8103;51.340;12.326;2023-03-23T10:49:32;99352.97;;;18.55;51.86
15998;BME280;8103;51.340;12.326;2023-03-23T10:55:11;99344.00;;;18.63;51.76
15998;BME280;8103;51.340;12.326;2023-03-23T10:57:43;99342.84;;;18.72;50.72
15998;BME280;8103;51.340;12.326;2023-03-23T11:00:21;99345.16;;;18.53;49.84
15998;BME280;8103;51.340;12.326;2023-03-23T11:03:00;99351.66;;;18.69;50.29
15998;BME280;8103;51.340;12.326;2023-03-23T11:05:42;99350.16;;;18.80;48.33
15998;BME280;8103;51.340;12.326;2023-03-23T11:08:15;99357.13;;;18.52;47.92
15998;BME280;8103;51.340;12.326;2023-03-23T11:11:07;99361.16;;;18.29;48.47
15998;BME280;8103;51.340;12.326;2023-03-23T11:13:33;99368.81;;;18.27;48.40
15998;BME280;8103;51.340;12.326;2023-03-23T11:16:03;99364.03;;;18.24;48.41
15998;BME280;8103;51.340;12.326;2023-03-23T11:18:42;99371.88;;;18.09;48.96
15998;BME280;8103;51.340;12.326;2023-03-23T11:21:12;99377.47;;;18.12;49.37
15998;BME280;8103;51.340;12.326;2023-03-23T11:23:42;99376.84;;;18.15;49.30
15998;BME280;8103;51.340;12.326;2023-03-23T11:26:36;99388.34;;;18.12;49.17
15998;BME280;8103;51.340;12.326;2023-03-23T11:29:21;99388.16;;;17.83;49.58
15998;BME280;8103;51.340;12.326;2023-03-23T11:31:53;99389.28;;;17.82;50.14
15998;BME280;8103;51.340;12.326;2023-03-23T11:34:23;99385.00;;;17.90;50.67
15998;BME280;8103;51.340;12.326;2023-03-23T11:36:58;99395.03;;;18.06;50.85
15998;BME280;8103;51.340;12.326;2023-03-23T11:39:46;99385.75;;;18.24;50.64
15998;BME280;8103;51.340;12.326;2023-03-23T11:42:20;99395.66;;;18.37;49.81
15998;BME280;8103;51.340;12.326;2023-03-23T11:44:46;99391.84;;;18.38;49.73
15998;BME280;8103;51.340;12.326;2023-03-23T11:47:27;99391.63;;;18.43;50.35
15998;BME280;8103;51.340;12.326;2023-03-23T11:50:21;99383.47;;;18.60;49.72
15998;BME280;8103;51.340;12.326;2023-03-23T11:53:03;99378.03;;;18.60;49.58
15998;BME280;8103;51.340;12.326;2023-03-23T11:58:15;99383.09;;;18.70;49.68
15998;BME280;8103;51.340;12.326;2023-03-23T12:04:03;99380.03;;;19.10;48.94
15998;BME280;8103;51.340;12.326;2023-03-23T12:13:30;99379.63;;;18.99;49.21
15998;BME280;8103;51.340;12.326;2023-03-23T12:16:17;99371.44;;;19.08;49.11
15998;BME280;8103;51.340;12.326;2023-03-23T12:19:20;99377.16;;;19.15;49.16
15998;BME280;8103;51.340;12.326;2023-03-23T12:22:20;99384.41;;;19.02;49.36
15998;BME280;8103;51.340;12.326;2023-03-23T12:25:12;99375.72;;;18.79;49.97
15998;BME280;8103;51.340;12.326;2023-03-23T12:36:45;99360.13;;;18.59;49.34
15998;BME280;8103;51.340;12.326;2023-03-23T12:46:07;99335.19;;;18.66;49.22
15998;BME280;8103;51.340;12.326;2023-03-23T12:48:49;99333.09;;;18.71;49.56
15998;BME280;8103;51.340;12.326;2023-03-23T12:51:39;99335.59;;;18.85;48.61
15998;BME280;8103;51.340;12.326;2023-03-23T12:57:35;99326.34;;;19.36;47.78
15998;BME280;8103;51.340;12.326;2023-03-23T13:00:22;99295.31;;;19.37;46.90
15998;BME280;8103;51.340;12.326;2023-03-23T13:03:03;99322.50;;;19.37;46.36
15998;BME280;8103;51.340;12.326;2023-03-23T13:05:44;99329.69;;;19.41;46.54
15998;BME280;8103;51.340;12.326;2023-03-23T13:08:21;99335.97;;;19.54;46.33
15998;BME280;8103;51.340;12.326;2023-03-23T13:10:51;99336.56;;;19.39;45.98
15998;BME280;8103;51.340;12.326;2023-03-23T13:13:25;99330.66;;;19.37;46.12
15998;BME280;8103;51.340;12.326;2023-03-23T13:16:10;99316.75;;;19.59;45.55
15998;BME280;8103;51.340;12.326;2023-03-23T13:21:31;99345.38;;;19.56;44.31
15998;BME280;8103;51.340;12.326;2023-03-23T13:24:09;99330.53;;;19.33;44.54
15998;BME280;8103;51.340;12.326;2023-03-23T13:26:41;99337.88;;;19.03;45.36
15998;BME280;8103;51.340;12.326;2023-03-23T13:29:22;99343.25;;;18.83;46.26
15998;BME280;8103;51.340;12.326;2023-03-23T13:32:12;99347.19;;;18.65;46.63
15998;BME280;8103;51.340;12.326;2023-03-23T13:34:40;99341.50;;;18.41;47.55
15998;BME280;8103;51.340;12.326;2023-03-23T13:37:23;99348.41;;;18.38;47.47
15998;BME280;8103;51.340;12.326;2023-03-23T13:39:54;99349.66;;;18.32;47.84
15998;BME280;8103;51.340;12.326;2023-03-23T13:42:31;99337.72;;;18.16;48.27
15998;BME280;8103;51.340;12.326;2023-03-23T13:50:58;99324.84;;;17.96;49.78
15998;BME280;8103;51.340;12.326;2023-03-23T13:57:37;99340.47;;;17.82;50.46
15998;BME280;8103;51.340;12.326;2023-03-23T14:03:01;99348.78;;;17.60;51.63
15998;BME280;8103;51.340;12.326;2023-03-23T14:05:48;99340.81;;;17.55;52.27
15998;BME280;8103;51.340;12.326;2023-03-23T14:08:37;99345.56;;;17.58;51.57
15998;BME280;8103;51.340;12.326;2023-03-23T14:11:15;99357.72;;;17.52;52.22
15998;BME280;8103;51.340;12.326;2023-03-23T14:14:03;99357.84;;;17.47;52.31
15998;BME280;8103;51.340;12.326;2023-03-23T14:16:43;99350.97;;;17.41;52.87
15998;BME280;8103;51.340;12.326;2023-03-23T14:19:27;99351.59;;;17.38;52.92
15998;BME280;8103;51.340;12.326;2023-03-23T14:22:02;99356.88;;;17.35;52.50
15998;BME280;8103;51.340;12.326;2023-03-23T14:24:38;99357.19;;;17.33;52.75
15998;BME280;8103;51.340;12.326;2023-03-23T14:29:33;99359.91;;;17.33;52.67
15998;BME280;8103;51.340;12.326;2023-03-23T14:32:00;99353.19;;;17.39;52.88
15998;BME280;8103;51.340;12.326;2023-03-23T14:34:31;99358.19;;;17.46;52.71
15998;BME280;8103;51.340;12.326;2023-03-23T14:36:59;99363.78;;;17.49;52.65
15998;BME280;8103;51.340;12.326;2023-03-23T14:39:36;99358.66;;;17.48;53.00
15998;BME280;8103;51.340;12.326;2023-03-23T14:42:11;99354.78;;;17.40;53.50
15998;BME280;8103;51.340;12.326;2023-03-23T14:44:45;99356.56;;;17.36;53.50
15998;BME280;8103;51.340;12.326;2023-03-23T14:47:28;99368.66;;;17.30;54.23
15998;BME280;8103;51.340;12.326;2023-03-23T14:49:58;99377.72;;;17.17;54.38
15998;BME280;8103;51.340;12.326;2023-03-23T14:52:32;99364.94;;;17.09;54.74
15998;BME280;8103;51.340;12.326;2023-03-23T14:55:19;99357.94;;;17.08;55.10
15998;BME280;8103;51.340;12.326;2023-03-23T14:57:48;99358.56;;;17.05;55.31
15998;BME280;8103;51.340;12.326;2023-03-23T15:00:31;99378.97;;;17.11;55.17